Terminal Aerodrome Forecast
Issued by NWS Sterling, VA

Home | Current Version | Previous Version | Text Only | Print | Product List | Glossary On
Versions: 1 2 3 4 5 6 7 8 9 10 11 12 13 14 15 16 17
000
FTUS41 KLWX 301304 AAB
TAFMRB
TAF AMD
KMRB 301304Z 3013/3112 VRB03KT P6SM BKN005 BKN100
     FM301400 VRB03KT P6SM SCT100 BKN140
     FM310400 VRB03KT 3SM BR BKN200 BKN250=

USA.gov is the U.S. government's official web portal to all federal, state and local government web resources and services.